Terminal Aerodrome Forecast
Issued by NWS

Home | Current Version | Previous Version | Text Only | Print | Product List | Glossary On
Versions: 1 2 3 4 5 6 7 8 9 10 11 12 13 14 15 16
000
FTUS43 KFGF 241731
TAFDVL
TAF
KDVL 241731Z 2418/2518 30018G25KT P6SM FEW200
     FM250000 30012KT P6SM BKN250
     FM251100 32006KT P6SM BKN090=

USA.gov is the U.S. government's official web portal to all federal, state and local government web resources and services.